Time;durP1;ratioP1;P1;durP2;ratioP2;P2;SDS_P1;SDS_P2;PMS_P1;PMS_P2;Temp;Humidity;BMP_temperature;BMP_pressure;BME280_temperature;BME280_humidity;BME280_pressure;Samples;Min_cycle;Max_cycle;Signal;HPM_P1;HPM_P2
2023/04/19 00:01:22;;;;;;;4.93;3.90;;;;;;;;;;5069707;28;20036;-72
2023/04/19 00:03:48;;;;;;;4.70;3.90;;;;;;;;;;5039369;28;20040;-72
2023/04/19 00:06:14;;;;;;;7.20;4.25;;;;;;;;;;5057289;28;20092;-71
2023/04/19 00:08:41;;;;;;;6.13;3.75;;;;;;;;;;5067957;28;20028;-72
2023/04/19 00:11:07;;;;;;;;;;;;;;;;;;5070020;28;20411;-72
2023/04/19 00:13:33;;;;;;;6.10;4.80;;;;;;;;;;5051783;28;20015;-69
2023/04/19 00:15:59;;;;;;;6.63;4.30;;;;;;;;;;5069593;28;20459;-69
2023/04/19 00:18:25;;;;;;;6.65;4.10;;;;;;;;;;5068600;28;20054;-70
2023/04/19 00:20:52;;;;;;;5.90;4.20;;;;;;;;;;5039591;28;20048;-69
2023/04/19 00:23:18;;;;;;;6.20;4.80;;;;;;;;;;5069283;28;20052;-69
2023/04/19 00:25:48;;;;;;;6.85;5.28;;;;;;;;;;5069093;28;20044;-69
2023/04/19 00:28:14;;;;;;;7.55;5.20;;;;;;;;;;5052547;28;20074;-70
2023/04/19 00:30:40;;;;;;;8.52;5.05;;;;;;;;;;5069233;28;20051;-70
2023/04/19 00:33:11;;;;;;;5.05;4.30;;;;;;;;;;5069322;28;20044;-69
2023/04/19 00:35:41;;;;;;;8.05;5.30;;;;;;;;;;5054866;28;20106;-69
2023/04/19 00:38:07;;;;;;;7.95;4.63;;;;;;;;;;5068956;28;20131;-69
2023/04/19 00:40:33;;;;;;;9.13;5.15;;;;;;;;;;5069009;28;20044;-69
2023/04/19 00:42:59;;;;;;;8.02;5.30;;;;;;;;;;5068713;28;20499;-69
2023/04/19 00:45:25;;;;;;;7.50;5.55;;;;;;;;;;5068945;28;20458;-70
2023/04/19 00:47:52;;;;;;;7.78;6.10;;;;;;;;;;5068899;28;20075;-69
2023/04/19 00:50:18;;;;;;;6.57;4.93;;;;;;;;;;5045594;28;20458;-69
2023/04/19 00:52:44;;;;;;;7.80;5.03;;;;;;;;;;5058210;28;20037;-70
2023/04/19 00:55:10;;;;;;;;;;;;;;;;;;5071028;28;20720;-69
2023/04/19 00:57:37;;;;;;;9.05;6.00;;;;;;;;;;5057602;28;19924;-69
2023/04/19 01:00:08;;;;;;;6.53;5.25;;;;;;;;;;5051965;28;20043;-69
2023/04/19 01:02:35;;;;;;;8.00;5.85;;;;;;;;;;5052106;28;20044;-72
2023/04/19 01:05:01;;;;;;;8.63;5.70;;;;;;;;;;5053699;28;20064;-72
2023/04/19 01:07:27;;;;;;;9.90;6.38;;;;;;;;;;5069089;28;20114;-72
2023/04/19 01:09:53;;;;;;;;;;;;;;;;;;5068812;28;20073;-72
2023/04/19 01:12:19;;;;;;;7.80;5.88;;;;;;;;;;5082276;28;19920;-72
2023/04/19 01:14:45;;;;;;;8.55;5.93;;;;;;;;;;5061270;28;20052;-72
2023/04/19 01:17:12;;;;;;;7.28;5.80;;;;;;;;;;5068701;28;20181;-72
2023/04/19 01:19:38;;;;;;;7.93;5.90;;;;;;;;;;5057979;28;20527;-73
2023/04/19 01:22:05;;;;;;;8.77;6.32;;;;;;;;;;5062402;28;20048;-72
2023/04/19 01:24:31;;;;;;;8.27;5.78;;;;;;;;;;5040559;28;20052;-73
2023/04/19 01:26:57;;;;;;;8.40;6.13;;;;;;;;;;5051633;28;20037;-72
2023/04/19 01:29:23;;;;;;;9.80;6.78;;;;;;;;;;5068654;28;20036;-72
2023/04/19 01:31:52;;;;;;;8.98;6.15;;;;;;;;;;5068631;28;20418;-72
2023/04/19 01:34:19;;;;;;;9.32;5.80;;;;;;;;;;5068664;28;20052;-73
2023/04/19 01:36:45;;;;;;;9.38;6.50;;;;;;;;;;5068394;28;20551;-72
2023/04/19 01:39:11;;;;;;;7.07;5.85;;;;;;;;;;5065132;28;20124;-72
2023/04/19 01:41:37;;;;;;;9.15;6.30;;;;;;;;;;5082096;28;20076;-72
2023/04/19 01:44:03;;;;;;;8.98;6.72;;;;;;;;;;5051791;28;20480;-71
2023/04/19 01:46:29;;;;;;;9.40;6.75;;;;;;;;;;5102119;28;20140;-72
2023/04/19 01:48:55;;;;;;;9.77;6.90;;;;;;;;;;5058735;28;20124;-72
2023/04/19 01:51:22;;;;;;;9.70;6.70;;;;;;;;;;5064035;28;20138;-71
2023/04/19 01:53:52;;;;;;;9.27;7.15;;;;;;;;;;5056034;28;20170;-71
2023/04/19 01:56:18;;;;;;;9.57;6.82;;;;;;;;;;5054046;28;20053;-72
2023/04/19 01:58:44;;;;;;;9.25;6.93;;;;;;;;;;5068496;28;20052;-69
2023/04/19 02:01:11;;;;;;;9.30;6.47;;;;;;;;;;5055594;28;20051;-69
2023/04/19 02:03:40;;;;;;;8.20;6.65;;;;;;;;;;5066660;28;20049;-69
2023/04/19 02:06:10;;;;;;;8.70;5.75;;;;;;;;;;5068217;28;20048;-69
2023/04/19 02:08:36;;;;;;;9.30;6.63;;;;;;;;;;5051311;28;20046;-70
2023/04/19 02:11:07;;;;;;;7.53;6.13;;;;;;;;;;5068194;28;20045;-69
2023/04/19 02:13:33;;;;;;;8.98;5.75;;;;;;;;;;5051861;28;20404;-69
2023/04/19 02:16:01;;;;;;;7.57;6.13;;;;;;;;;;5040373;28;20447;-69
2023/04/19 02:18:28;;;;;;;9.50;6.47;;;;;;;;;;5055170;28;20383;-69
2023/04/19 02:20:55;;;;;;;10.15;6.47;;;;;;;;;;5038541;28;20079;-69
2023/04/19 02:23:21;;;;;;;10.68;6.10;;;;;;;;;;5071733;28;20048;-69
2023/04/19 02:25:47;;;;;;;11.30;6.40;;;;;;;;;;5057506;28;20093;-69
2023/04/19 02:28:13;;;;;;;7.82;5.82;;;;;;;;;;5071549;28;20048;-69
2023/04/19 02:30:39;;;;;;;10.48;5.75;;;;;;;;;;5056302;28;20373;-69
2023/04/19 02:33:05;;;;;;;9.60;5.50;;;;;;;;;;5086061;28;20471;-69
2023/04/19 02:35:31;;;;;;;8.73;5.40;;;;;;;;;;5058517;28;20047;-70
2023/04/19 02:37:57;;;;;;;7.70;5.32;;;;;;;;;;5054610;28;20070;-72
2023/04/19 02:40:24;;;;;;;8.48;5.60;;;;;;;;;;5054737;28;20508;-72
2023/04/19 02:42:50;;;;;;;6.25;4.70;;;;;;;;;;5072708;28;20049;-72
2023/04/19 02:45:16;;;;;;;6.35;4.95;;;;;;;;;;5071129;28;20444;-72
2023/04/19 02:47:42;;;;;;;6.78;4.85;;;;;;;;;;5065889;28;20119;-72
2023/04/19 02:50:09;;;;;;;6.57;4.93;;;;;;;;;;5073955;28;20114;-72
2023/04/19 02:52:35;;;;;;;6.38;4.70;;;;;;;;;;5070792;28;20123;-72
2023/04/19 02:55:01;;;;;;;6.68;4.75;;;;;;;;;;5085334;28;20479;-72
2023/04/19 02:57:27;;;;;;;6.75;4.43;;;;;;;;;;5072429;28;20036;-72
2023/04/19 02:59:53;;;;;;;6.05;4.45;;;;;;;;;;5085018;28;20094;-72
2023/04/19 03:02:19;;;;;;;7.50;4.45;;;;;;;;;;5085174;28;20499;-72
2023/04/19 03:04:46;;;;;;;6.13;4.03;;;;;;;;;;5054047;28;20538;-72
2023/04/19 03:07:12;;;;;;;6.30;4.70;;;;;;;;;;5088340;28;20510;-72
2023/04/19 03:09:38;;;;;;;;;;;;;;;;;;5081872;28;20143;-71
2023/04/19 03:12:04;;;;;;;6.15;4.72;;;;;;;;;;5071989;28;20003;-72
2023/04/19 03:14:32;;;;;;;6.85;4.65;;;;;;;;;;5083349;28;20083;-72
2023/04/19 03:16:58;;;;;;;6.63;4.60;;;;;;;;;;5054282;28;20097;-72
2023/04/19 03:19:24;;;;;;;7.13;4.65;;;;;;;;;;5070425;28;20044;-72
2023/04/19 03:21:51;;;;;;;7.53;3.95;;;;;;;;;;5070381;28;20044;-72
2023/04/19 03:24:26;;;;;;;6.47;4.32;;;;;;;;;;5070617;28;20056;-72
2023/04/19 03:26:52;;;;;;;7.75;4.70;;;;;;;;;;5081803;28;20055;-72
2023/04/19 03:29:18;;;;;;;6.03;4.13;;;;;;;;;;5069521;28;20045;-72
2023/04/19 03:31:44;;;;;;;6.05;4.15;;;;;;;;;;5070362;28;20503;-72
2023/04/19 03:34:10;;;;;;;5.68;4.32;;;;;;;;;;5084344;28;20071;-72
2023/04/19 03:36:36;;;;;;;6.72;4.30;;;;;;;;;;5070192;28;20055;-72
2023/04/19 03:39:03;;;;;;;5.85;4.22;;;;;;;;;;5083958;28;20040;-72
2023/04/19 03:41:29;;;;;;;6.72;4.70;;;;;;;;;;5071173;28;20037;-72
2023/04/19 03:43:57;;;;;;;6.90;4.72;;;;;;;;;;5080977;28;20073;-72
2023/04/19 03:46:23;;;;;;;8.25;4.40;;;;;;;;;;5072910;28;20122;-72
2023/04/19 03:48:50;;;;;;;5.60;4.10;;;;;;;;;;5070279;28;20052;-72
2023/04/19 03:51:16;;;;;;;5.68;4.22;;;;;;;;;;5070729;28;20070;-72
2023/04/19 03:53:42;;;;;;;5.75;4.60;;;;;;;;;;5082987;28;20121;-71
2023/04/19 03:56:08;;;;;;;7.50;5.07;;;;;;;;;;5049889;28;20337;-71
2023/04/19 03:58:34;;;;;;;10.88;4.60;;;;;;;;;;5053921;28;20036;-72
2023/04/19 04:01:01;;;;;;;7.05;4.88;;;;;;;;;;5066434;28;20040;-72
2023/04/19 04:03:27;;;;;;;7.40;4.53;;;;;;;;;;5057825;28;20042;-72
2023/04/19 04:05:53;;;;;;;5.78;3.45;;;;;;;;;;5105168;27;20040;-71
2023/04/19 04:08:19;;;;;;;5.60;3.80;;;;;;;;;;5053128;28;20127;-72
2023/04/19 04:10:45;;;;;;;5.95;4.15;;;;;;;;;;5069774;28;20349;-72
2023/04/19 04:13:11;;;;;;;6.65;3.60;;;;;;;;;;5069470;28;20426;-72
2023/04/19 04:15:37;;;;;;;6.28;4.30;;;;;;;;;;5074940;28;20516;-72
2023/04/19 04:18:04;;;;;;;4.78;3.58;;;;;;;;;;5053596;28;20357;-72
2023/04/19 04:20:30;;;;;;;5.32;3.50;;;;;;;;;;5072366;28;20548;-72
2023/04/19 04:22:56;;;;;;;5.88;3.70;;;;;;;;;;5069369;28;20203;-72
2023/04/19 04:25:23;;;;;;;6.93;4.00;;;;;;;;;;5069061;28;20082;-72
2023/04/19 04:27:51;;;;;;;5.35;3.63;;;;;;;;;;5069191;28;20048;-72
2023/04/19 04:30:17;;;;;;;4.70;3.17;;;;;;;;;;5069003;28;20044;-72
2023/04/19 04:32:43;;;;;;;4.82;3.47;;;;;;;;;;5075799;28;20033;-71
2023/04/19 04:35:10;;;;;;;;;;;;;;;;;;5086466;28;20054;-71
2023/04/19 04:37:36;;;;;;;5.07;3.50;;;;;;;;;;5069574;28;20369;-72
2023/04/19 04:40:05;;;;;;;;;;;;;;;;;;5083073;28;20045;-72
2023/04/19 04:42:32;;;;;;;4.78;3.53;;;;;;;;;;5082206;28;19969;-72
2023/04/19 04:45:00;;;;;;;4.85;3.00;;;;;;;;;;5069471;28;20071;-72
2023/04/19 04:47:32;;;;;;;5.13;3.70;;;;;;;;;;5068991;28;20055;-72
2023/04/19 04:49:59;;;;;;;5.97;3.30;;;;;;;;;;5068846;28;20119;-72
2023/04/19 04:52:25;;;;;;;5.65;3.38;;;;;;;;;;5068894;28;20074;-72
2023/04/19 04:54:51;;;;;;;6.32;3.75;;;;;;;;;;5052187;28;20151;-72
2023/04/19 04:57:17;;;;;;;5.32;3.53;;;;;;;;;;5068720;28;20048;-72
2023/04/19 04:59:46;;;;;;;5.82;3.33;;;;;;;;;;5083457;28;20048;-72
2023/04/19 05:02:13;;;;;;;4.40;3.35;;;;;;;;;;5081915;28;20049;-72
2023/04/19 05:04:39;;;;;;;7.68;3.58;;;;;;;;;;5068497;28;20044;-72
2023/04/19 05:07:05;;;;;;;4.25;3.45;;;;;;;;;;5073756;28;20118;-72
2023/04/19 05:09:31;;;;;;;5.30;3.40;;;;;;;;;;5077695;28;20033;-72
2023/04/19 05:11:57;;;;;;;3.53;2.65;;;;;;;;;;5071865;28;20040;-72
2023/04/19 05:14:23;;;;;;;4.40;3.17;;;;;;;;;;5062850;28;20044;-72
2023/04/19 05:16:49;;;;;;;8.93;3.80;;;;;;;;;;5083915;28;20036;-72
2023/04/19 05:19:15;;;;;;;5.28;3.33;;;;;;;;;;5064719;28;20502;-72
2023/04/19 05:21:41;;;;;;;4.07;2.85;;;;;;;;;;5068637;28;20063;-72
2023/04/19 05:24:08;;;;;;;6.22;3.17;;;;;;;;;;5068689;28;20044;-72
2023/04/19 05:26:35;;;;;;;4.35;3.20;;;;;;;;;;5068480;28;20766;-72
2023/04/19 05:29:01;;;;;;;4.38;3.13;;;;;;;;;;5072203;28;20036;-72
2023/04/19 05:31:27;;;;;;;5.25;3.28;;;;;;;;;;5078608;28;20052;-72
2023/04/19 05:33:53;;;;;;;5.50;3.20;;;;;;;;;;5068447;28;20055;-71
2023/04/19 05:36:19;;;;;;;5.45;3.25;;;;;;;;;;5068250;28;20453;-72
2023/04/19 05:38:45;;;;;;;6.47;2.97;;;;;;;;;;5068549;28;20050;-72
2023/04/19 05:41:11;;;;;;;4.03;3.00;;;;;;;;;;5068137;28;20142;-71
2023/04/19 05:43:37;;;;;;;4.03;2.70;;;;;;;;;;5068316;28;20559;-72
2023/04/19 05:46:04;;;;;;;3.13;2.50;;;;;;;;;;5084269;28;20032;-72
2023/04/19 05:48:30;;;;;;;4.78;2.80;;;;;;;;;;5082096;28;20124;-72
2023/04/19 05:50:56;;;;;;;4.20;3.00;;;;;;;;;;5068325;28;20076;-71
2023/04/19 05:53:23;;;;;;;5.38;3.35;;;;;;;;;;5090805;28;20060;-71
2023/04/19 05:55:50;;;;;;;5.10;2.90;;;;;;;;;;5081652;28;20113;-71
2023/04/19 05:58:16;;;;;;;5.40;3.08;;;;;;;;;;5086321;28;20471;-72
2023/04/19 06:00:42;;;;;;;6.22;3.10;;;;;;;;;;5080862;28;20048;-73
2023/04/19 06:03:08;;;;;;;4.18;2.35;;;;;;;;;;5111240;27;20050;-73
2023/04/19 06:05:34;;;;;;;4.20;2.78;;;;;;;;;;5071763;28;20139;-72
2023/04/19 06:08:00;;;;;;;3.55;2.30;;;;;;;;;;5072262;28;20068;-73
2023/04/19 06:10:26;;;;;;;4.55;2.45;;;;;;;;;;5077121;28;20483;-73
2023/04/19 06:12:52;;;;;;;5.60;2.47;;;;;;;;;;5080903;28;20565;-73
2023/04/19 06:15:19;;;;;;;4.35;2.72;;;;;;;;;;5071635;28;20478;-72
2023/04/19 06:17:45;;;;;;;6.47;2.67;;;;;;;;;;5055561;28;20494;-73
2023/04/19 06:20:11;;;;;;;3.40;2.20;;;;;;;;;;5071685;28;20048;-73
2023/04/19 06:22:42;;;;;;;2.30;1.80;;;;;;;;;;5071732;28;20158;-75
2023/04/19 06:25:08;;;;;;;5.47;2.35;;;;;;;;;;5071580;28;20484;-73
2023/04/19 06:27:34;;;;;;;3.45;2.45;;;;;;;;;;5057335;28;20483;-73
2023/04/19 06:30:00;;;;;;;3.00;2.15;;;;;;;;;;5085399;28;20426;-74
2023/04/19 06:32:26;;;;;;;4.45;2.40;;;;;;;;;;5088932;28;20060;-73
2023/04/19 06:34:52;;;;;;;4.63;2.10;;;;;;;;;;5071608;28;20121;-73
2023/04/19 06:37:18;;;;;;;3.03;2.05;;;;;;;;;;5068790;28;20201;-73
2023/04/19 06:39:45;;;;;;;4.28;2.20;;;;;;;;;;5068730;28;20049;-73
2023/04/19 06:42:11;;;;;;;2.40;1.80;;;;;;;;;;5082049;28;20044;-69
2023/04/19 06:44:37;;;;;;;3.95;2.38;;;;;;;;;;5043025;28;20124;-71
2023/04/19 06:47:03;;;;;;;3.42;2.00;;;;;;;;;;5083015;28;20036;-70
2023/04/19 06:49:30;;;;;;;2.42;1.95;;;;;;;;;;5071604;28;20048;-71
2023/04/19 06:51:56;;;;;;;4.40;1.92;;;;;;;;;;5084734;28;20077;-70
2023/04/19 06:54:22;;;;;;;4.75;1.98;;;;;;;;;;5083763;28;20063;-70
2023/04/19 06:56:49;;;;;;;2.85;1.80;;;;;;;;;;5072242;28;20511;-70
2023/04/19 06:59:19;;;;;;;2.75;2.05;;;;;;;;;;5071058;28;20484;-70
2023/04/19 07:01:46;;;;;;;3.15;1.65;;;;;;;;;;5070858;28;20028;-70
2023/04/19 07:04:12;;;;;;;2.25;1.77;;;;;;;;;;5062756;28;20565;-70
2023/04/19 07:06:39;;;;;;;2.53;1.90;;;;;;;;;;5089395;28;20058;-70
2023/04/19 07:09:05;;;;;;;;;;;;;;;;;;5054914;28;20388;-70
2023/04/19 07:11:31;;;;;;;2.05;1.50;;;;;;;;;;5084661;28;20405;-70
2023/04/19 07:13:59;;;;;;;2.42;1.60;;;;;;;;;;5071010;28;20028;-70
2023/04/19 07:16:26;;;;;;;3.58;1.92;;;;;;;;;;5070674;28;20049;-70
2023/04/19 07:18:52;;;;;;;2.72;1.60;;;;;;;;;;5070417;28;20053;-70
2023/04/19 07:21:18;;;;;;;2.28;1.40;;;;;;;;;;5070807;28;20072;-70
2023/04/19 07:23:44;;;;;;;2.83;1.60;;;;;;;;;;5067921;28;20044;-70
2023/04/19 07:26:10;;;;;;;2.05;1.50;;;;;;;;;;5078846;28;20123;-70
2023/04/19 07:28:36;;;;;;;2.15;1.40;;;;;;;;;;5059439;28;20079;-70
2023/04/19 07:31:02;;;;;;;2.33;1.48;;;;;;;;;;5070550;28;20106;-70
2023/04/19 07:33:28;;;;;;;2.28;1.13;;;;;;;;;;5104135;28;20052;-70
2023/04/19 07:35:55;;;;;;;2.08;1.50;;;;;;;;;;5084821;28;20044;-70
2023/04/19 07:38:21;;;;;;;5.18;1.50;;;;;;;;;;5057370;28;20548;-69
2023/04/19 07:40:47;;;;;;;;;;;;;;;;;;5054224;28;20131;-70
2023/04/19 07:43:13;;;;;;;3.20;1.45;;;;;;;;;;5084182;28;20015;-70
2023/04/19 07:45:39;;;;;;;3.83;1.17;;;;;;;;;;5070300;28;20041;-70
2023/04/19 07:48:05;;;;;;;2.05;1.30;;;;;;;;;;5053399;28;20028;-69
2023/04/19 07:50:32;;;;;;;2.10;1.50;;;;;;;;;;5070260;28;20069;-70
2023/04/19 07:52:58;;;;;;;2.75;1.45;;;;;;;;;;5069802;28;20036;-70
2023/04/19 07:55:24;;;;;;;2.08;1.38;;;;;;;;;;5053423;28;20129;-70
2023/04/19 07:57:50;;;;;;;2.03;1.30;;;;;;;;;;5069817;28;20044;-70
2023/04/19 08:00:20;;;;;;;2.53;1.20;;;;;;;;;;5069758;28;20070;-70
2023/04/19 08:02:46;;;;;;;3.13;1.02;;;;;;;;;;5069694;28;20551;-70
2023/04/19 08:05:13;;;;;;;2.28;1.20;;;;;;;;;;5053089;28;20762;-69
2023/04/19 08:07:39;;;;;;;2.45;1.13;;;;;;;;;;5046604;28;20094;-69
2023/04/19 08:10:05;;;;;;;;;;;;;;;;;;5074065;28;20072;-69
2023/04/19 08:12:32;;;;;;;2.38;1.20;;;;;;;;;;5077833;28;19920;-69
2023/04/19 08:14:58;;;;;;;2.13;1.13;;;;;;;;;;5074897;28;20048;-69
2023/04/19 08:17:24;;;;;;;2.95;1.20;;;;;;;;;;5069539;28;20052;-69
2023/04/19 08:19:50;;;;;;;1.88;1.10;;;;;;;;;;5069857;28;20052;-69
2023/04/19 08:22:17;;;;;;;2.40;1.45;;;;;;;;;;5068963;28;20531;-69
2023/04/19 08:24:43;;;;;;;1.45;1.10;;;;;;;;;;5069550;28;20041;-70
2023/04/19 08:27:09;;;;;;;;;;;;;;;;;;5069616;28;20055;-69
2023/04/19 08:29:36;;;;;;;2.60;1.20;;;;;;;;;;5069281;28;19923;-69
2023/04/19 08:32:02;;;;;;;5.22;1.40;;;;;;;;;;5069031;28;20124;-69
2023/04/19 08:34:28;;;;;;;1.33;1.10;;;;;;;;;;5069256;28;20040;-70
2023/04/19 08:36:54;;;;;;;;;;;;;;;;;;5069681;28;20046;-70
2023/04/19 08:39:21;;;;;;;2.17;1.23;;;;;;;;;;5069090;28;19974;-69
2023/04/19 08:41:47;;;;;;;2.97;1.20;;;;;;;;;;5059440;28;20451;-69
2023/04/19 08:44:14;;;;;;;1.85;1.10;;;;;;;;;;5059722;28;20055;-69
2023/04/19 08:46:41;;;;;;;3.85;1.48;;;;;;;;;;5032342;28;20441;-69
2023/04/19 08:49:08;;;;;;;1.75;1.23;;;;;;;;;;5060487;28;20545;-70
2023/04/19 08:51:34;;;;;;;1.80;1.27;;;;;;;;;;5052410;28;20063;-69
2023/04/19 08:54:01;;;;;;;3.45;1.30;;;;;;;;;;5078671;28;20433;-69
2023/04/19 08:56:27;;;;;;;2.58;1.20;;;;;;;;;;5072995;28;20056;-69
2023/04/19 08:58:53;;;;;;;3.05;1.35;;;;;;;;;;5069165;28;20040;-69
2023/04/19 09:01:20;;;;;;;2.38;1.60;;;;;;;;;;5052567;28;20079;-69
2023/04/19 09:03:46;;;;;;;3.35;1.63;;;;;;;;;;5054710;28;20037;-69
2023/04/19 09:06:13;;;;;;;2.95;1.20;;;;;;;;;;5080866;28;20048;-69
2023/04/19 09:08:39;;;;;;;;;;;;;;;;;;5075069;28;20035;-69
2023/04/19 09:11:05;;;;;;;4.15;1.35;;;;;;;;;;5078582;28;20013;-69
2023/04/19 09:13:32;;;;;;;2.67;1.40;;;;;;;;;;5068499;28;20621;-70
2023/04/19 09:16:03;;;;;;;1.70;0.90;;;;;;;;;;5052446;28;20482;-70
2023/04/19 09:18:29;;;;;;;1.90;1.30;;;;;;;;;;5083071;28;20161;-69
2023/04/19 09:20:59;;;;;;;1.92;1.20;;;;;;;;;;5068743;28;20525;-69
2023/04/19 09:23:27;;;;;;;2.15;1.40;;;;;;;;;;5068627;28;20048;-69
2023/04/19 09:25:53;;;;;;;2.17;1.50;;;;;;;;;;5068518;28;20080;-69
2023/04/19 09:28:20;;;;;;;1.83;1.30;;;;;;;;;;5068217;28;20482;-69
2023/04/19 09:30:46;;;;;;;1.42;1.13;;;;;;;;;;5088952;28;20040;-69
2023/04/19 09:33:12;;;;;;;2.83;1.40;;;;;;;;;;5072561;28;20036;-69
2023/04/19 09:35:48;;;;;;;2.10;1.33;;;;;;;;;;5086744;28;20095;-69
2023/04/19 09:38:14;;;;;;;2.90;1.30;;;;;;;;;;5076750;28;20055;-69
2023/04/19 09:40:41;;;;;;;1.90;1.23;;;;;;;;;;5084478;28;20158;-69
2023/04/19 09:43:07;;;;;;;2.30;1.30;;;;;;;;;;5074620;28;20048;-69
2023/04/19 09:45:43;;;;;;;1.23;1.13;;;;;;;;;;5072343;28;20547;-69
2023/04/19 09:48:10;;;;;;;1.52;1.17;;;;;;;;;;5075791;28;20044;-70
2023/04/19 09:50:37;;;;;;;3.08;1.20;;;;;;;;;;5083274;28;20048;-69
2023/04/19 09:53:03;;;;;;;3.40;1.20;;;;;;;;;;5086365;28;20040;-69
2023/04/19 09:55:29;;;;;;;;;;;;;;;;;;5072636;28;20399;-69
2023/04/19 09:57:55;;;;;;;1.63;1.10;;;;;;;;;;5072210;28;19922;-69
2023/04/19 10:00:22;;;;;;;2.00;1.20;;;;;;;;;;5072305;28;20063;-69
2023/04/19 10:02:54;;;;;;;3.88;1.10;;;;;;;;;;5072070;28;20133;-69
2023/04/19 10:05:24;;;;;;;2.05;1.08;;;;;;;;;;5078203;28;20487;-69
2023/04/19 10:07:50;;;;;;;1.38;1.00;;;;;;;;;;5080712;28;20106;-69
2023/04/19 10:10:17;;;;;;;1.75;0.90;;;;;;;;;;5055717;28;20036;-69
2023/04/19 10:12:47;;;;;;;1.52;0.90;;;;;;;;;;5073323;28;20048;-69
2023/04/19 10:15:14;;;;;;;3.38;1.17;;;;;;;;;;5074096;28;20143;-69
2023/04/19 10:17:40;;;;;;;3.28;1.25;;;;;;;;;;5083678;28;20044;-69
2023/04/19 10:20:09;;;;;;;2.47;1.15;;;;;;;;;;5055506;28;20049;-69
2023/04/19 10:22:38;;;;;;;4.82;1.15;;;;;;;;;;5073647;28;20527;-69
2023/04/19 10:25:09;;;;;;;2.58;1.20;;;;;;;;;;5071608;28;20047;-68
2023/04/19 10:27:36;;;;;;;1.85;1.40;;;;;;;;;;5057737;28;20464;-69
2023/04/19 10:30:09;;;;;;;;;;;;;;;;;;5055788;28;20503;-69
2023/04/19 10:32:43;;;;;;;2.10;0.77;;;;;;;;;;5085715;28;19962;-68
2023/04/19 10:35:10;;;;;;;4.20;0.90;;;;;;;;;;5071804;28;20044;-70
2023/04/19 10:37:40;;;;;;;3.17;0.80;;;;;;;;;;5075189;28;20040;-69
2023/04/19 10:40:07;;;;;;;3.17;1.20;;;;;;;;;;5072090;28;20048;-70
2023/04/19 10:42:52;;;;;;;4.35;1.00;;;;;;;;;;5085020;28;20479;-70
2023/04/19 10:45:31;;;;;;;1.42;0.90;;;;;;;;;;5101132;27;20047;-69
2023/04/19 10:47:57;;;;;;;1.40;0.90;;;;;;;;;;5075363;28;20507;-69
2023/04/19 10:50:23;;;;;;;1.40;0.80;;;;;;;;;;5056052;28;20399;-73
2023/04/19 10:52:49;;;;;;;4.15;1.05;;;;;;;;;;5072207;28;20036;-73
2023/04/19 10:55:18;;;;;;;1.35;1.00;;;;;;;;;;5055450;28;20084;-73
2023/04/19 10:58:01;;;;;;;1.40;0.80;;;;;;;;;;5072171;28;20506;-74
2023/04/19 11:00:30;;;;;;;3.33;1.00;;;;;;;;;;5072511;28;20052;-74
2023/04/19 11:02:56;;;;;;;2.70;1.02;;;;;;;;;;5072336;28;20518;-74
2023/04/19 11:05:22;;;;;;;1.50;0.90;;;;;;;;;;5055202;28;20098;-74
2023/04/19 11:07:48;;;;;;;1.50;0.88;;;;;;;;;;5083267;28;20044;-73
2023/04/19 11:10:14;;;;;;;;;;;;;;;;;;5074974;28;20455;-74
2023/04/19 11:12:44;;;;;;;1.92;1.10;;;;;;;;;;5072081;28;20326;-73
2023/04/19 11:15:10;;;;;;;2.33;0.80;;;;;;;;;;5072551;28;20056;-74
2023/04/19 11:17:38;;;;;;;1.58;0.90;;;;;;;;;;5055499;28;20052;-74
2023/04/19 11:20:08;;;;;;;2.75;0.80;;;;;;;;;;5072174;28;20124;-74
2023/04/19 11:22:45;;;;;;;2.17;1.10;;;;;;;;;;5071883;28;20044;-74
2023/04/19 11:25:19;;;;;;;2.05;0.90;;;;;;;;;;5071779;28;20514;-73
2023/04/19 11:27:46;;;;;;;3.78;0.90;;;;;;;;;;5055098;28;20032;-73
2023/04/19 11:30:13;;;;;;;1.55;0.80;;;;;;;;;;5071914;28;20067;-74
2023/04/19 11:32:49;;;;;;;1.70;0.90;;;;;;;;;;5054716;28;20475;-73
2023/04/19 11:35:18;;;;;;;2.78;1.10;;;;;;;;;;5071674;28;20084;-73
2023/04/19 11:37:45;;;;;;;2.30;0.90;;;;;;;;;;5071023;28;20046;-73
2023/04/19 11:40:15;;;;;;;2.47;1.33;;;;;;;;;;5071334;28;20047;-74
2023/04/19 11:42:41;;;;;;;2.42;1.10;;;;;;;;;;5071127;28;20056;-72
2023/04/19 11:45:07;;;;;;;;;;;;;;;;;;5055130;28;20040;-73
2023/04/19 11:47:33;;;;;;;5.32;1.30;;;;;;;;;;5071046;28;19920;-73
2023/04/19 11:50:19;;;;;;;2.85;1.05;;;;;;;;;;5070306;28;20037;-73
2023/04/19 11:52:49;;;;;;;1.50;1.13;;;;;;;;;;5070720;28;20211;-72
2023/04/19 11:55:18;;;;;;;1.50;1.10;;;;;;;;;;5070746;28;20131;-73
2023/04/19 11:57:44;;;;;;;2.45;1.20;;;;;;;;;;5070364;28;20483;-68
2023/04/19 12:00:11;;;;;;;1.95;1.30;;;;;;;;;;5053314;28;20048;-69
2023/04/19 12:02:41;;;;;;;1.83;1.30;;;;;;;;;;5069748;28;20059;-69
2023/04/19 12:05:15;;;;;;;4.50;1.58;;;;;;;;;;5069351;28;20044;-69
2023/04/19 12:07:59;;;;;;;2.03;1.50;;;;;;;;;;5080075;28;20040;-69
2023/04/19 12:10:25;;;;;;;2.78;1.63;;;;;;;;;;5075808;28;20036;-69
2023/04/19 12:12:51;;;;;;;1.83;1.10;;;;;;;;;;5062256;28;20040;-69
2023/04/19 12:15:17;;;;;;;5.53;1.48;;;;;;;;;;5053028;28;20052;-69
2023/04/19 12:17:43;;;;;;;;;;;;;;;;;;5069806;28;20058;-69
2023/04/19 12:20:10;;;;;;;3.10;1.70;;;;;;;;;;5083777;28;19916;-69
2023/04/19 12:22:36;;;;;;;3.38;1.50;;;;;;;;;;5052417;28;20106;-69
2023/04/19 12:25:02;;;;;;;2.08;1.52;;;;;;;;;;5052876;28;20123;-69
2023/04/19 12:27:28;;;;;;;3.17;1.40;;;;;;;;;;5074247;28;20116;-69
2023/04/19 12:29:54;;;;;;;3.15;1.70;;;;;;;;;;5090103;28;20032;-70
2023/04/19 12:32:20;;;;;;;3.85;1.75;;;;;;;;;;5071933;28;20028;-70
2023/04/19 12:34:46;;;;;;;2.50;1.80;;;;;;;;;;5069199;28;20055;-70
2023/04/19 12:37:12;;;;;;;2.55;2.00;;;;;;;;;;5069952;28;20047;-72
2023/04/19 12:39:38;;;;;;;2.45;1.58;;;;;;;;;;5108862;27;20035;-70
2023/04/19 12:42:05;;;;;;;3.10;1.90;;;;;;;;;;5089042;28;20097;-70
2023/04/19 12:44:31;;;;;;;;;;;;;;;;;;5074054;28;20055;-70
2023/04/19 12:46:57;;;;;;;3.92;1.83;;;;;;;;;;5076474;28;20311;-70
2023/04/19 12:49:23;;;;;;;6.78;2.00;;;;;;;;;;5075468;28;20047;-70
2023/04/19 12:51:49;;;;;;;5.45;2.00;;;;;;;;;;5068943;28;20040;-70
2023/04/19 12:54:15;;;;;;;3.25;1.98;;;;;;;;;;5063800;28;20051;-70
2023/04/19 12:56:41;;;;;;;3.42;2.25;;;;;;;;;;5074826;28;20043;-70
2023/04/19 12:59:07;;;;;;;4.78;2.65;;;;;;;;;;5079259;28;20040;-70
2023/04/19 13:01:33;;;;;;;5.88;2.42;;;;;;;;;;5052291;28;20097;-69
2023/04/19 13:04:00;;;;;;;7.28;2.60;;;;;;;;;;5060153;28;20080;-70
2023/04/19 13:06:26;;;;;;;4.65;2.50;;;;;;;;;;5057974;28;20484;-70
2023/04/19 13:08:52;;;;;;;4.88;2.30;;;;;;;;;;5082934;28;20055;-70
2023/04/19 13:11:21;;;;;;;2.60;2.00;;;;;;;;;;5068602;28;20044;-70
2023/04/19 13:13:47;;;;;;;5.82;2.30;;;;;;;;;;5051960;28;20146;-70
2023/04/19 13:16:13;;;;;;;;;;;;;;;;;;5062978;28;20122;-69
2023/04/19 13:18:40;;;;;;;3.22;2.47;;;;;;;;;;5072105;28;20016;-70
2023/04/19 13:21:06;;;;;;;4.68;2.90;;;;;;;;;;5068738;28;20051;-70
2023/04/19 13:23:32;;;;;;;3.83;2.50;;;;;;;;;;5052125;28;20053;-70
2023/04/19 13:25:58;;;;;;;3.47;2.42;;;;;;;;;;5065390;28;20115;-70
2023/04/19 13:28:24;;;;;;;;;;;;;;;;;;5069191;28;20064;-70
2023/04/19 13:30:50;;;;;;;4.93;3.05;;;;;;;;;;5068278;28;20386;-70
2023/04/19 13:33:16;;;;;;;5.18;3.17;;;;;;;;;;5052190;28;20036;-69
2023/04/19 13:35:43;;;;;;;3.63;2.55;;;;;;;;;;5051630;28;20230;-69
2023/04/19 13:38:09;;;;;;;7.38;3.15;;;;;;;;;;5068350;28;20048;-70
2023/04/19 13:40:35;;;;;;;4.88;2.67;;;;;;;;;;5080172;28;20351;-70
2023/04/19 13:43:02;;;;;;;3.67;2.90;;;;;;;;;;5074484;28;20367;-70
2023/04/19 13:45:28;;;;;;;;;;;;;;;;;;5088924;28;20044;-69
2023/04/19 13:47:54;;;;;;;4.47;3.30;;;;;;;;;;5074449;28;19985;-69
2023/04/19 13:50:20;;;;;;;4.75;3.30;;;;;;;;;;5081493;28;20049;-69
2023/04/19 13:52:46;;;;;;;3.83;2.80;;;;;;;;;;5052157;28;20084;-69
2023/04/19 13:55:12;;;;;;;3.38;2.40;;;;;;;;;;5051469;28;20441;-69
2023/04/19 13:57:38;;;;;;;4.88;3.63;;;;;;;;;;5063170;28;20104;-69
2023/04/19 14:00:04;;;;;;;4.22;2.80;;;;;;;;;;5070646;28;20055;-69
2023/04/19 14:02:30;;;;;;;3.92;3.10;;;;;;;;;;5068374;28;20081;-72
2023/04/19 14:04:57;;;;;;;5.72;3.60;;;;;;;;;;5052469;28;20482;-73
2023/04/19 14:07:23;;;;;;;6.38;2.92;;;;;;;;;;5052623;28;20456;-74
2023/04/19 14:09:50;;;;;;;5.32;3.00;;;;;;;;;;5099894;28;20533;-73
2023/04/19 14:12:16;;;;;;;4.95;3.20;;;;;;;;;;5069829;28;20044;-73
2023/04/19 14:14:42;;;;;;;5.18;3.20;;;;;;;;;;5085516;28;20059;-71
2023/04/19 14:17:08;;;;;;;4.00;2.90;;;;;;;;;;5058547;28;20430;-74
2023/04/19 14:19:35;;;;;;;3.90;2.50;;;;;;;;;;5072656;28;20415;-68
2023/04/19 14:22:01;;;;;;;8.10;3.35;;;;;;;;;;5074707;28;20067;-69
2023/04/19 14:24:27;;;;;;;5.70;3.25;;;;;;;;;;5105685;28;20048;-69
2023/04/19 14:26:53;;;;;;;3.90;2.90;;;;;;;;;;5071395;28;20115;-69
2023/04/19 14:29:19;;;;;;;4.90;2.90;;;;;;;;;;5112064;27;20135;-69
2023/04/19 14:31:46;;;;;;;4.88;3.20;;;;;;;;;;5079416;28;20511;-69
2023/04/19 14:34:12;;;;;;;8.25;2.83;;;;;;;;;;5071792;28;20040;-69
2023/04/19 14:36:38;;;;;;;;;;;;;;;;;;5082614;28;20127;-69
2023/04/19 14:39:04;;;;;;;6.95;3.00;;;;;;;;;;5074835;28;20031;-70
2023/04/19 14:41:31;;;;;;;3.63;2.55;;;;;;;;;;5071343;28;20059;-69
2023/04/19 14:43:57;;;;;;;4.30;2.10;;;;;;;;;;5054791;28;20062;-69
2023/04/19 14:46:23;;;;;;;4.45;2.80;;;;;;;;;;5071035;28;20064;-69
2023/04/19 14:48:49;;;;;;;4.93;2.47;;;;;;;;;;5054627;28;20510;-69